createdAt,value
2023-03-06T00:02:02.530Z,23.50
2023-03-06T00:04:39.207Z,22.10
2023-03-06T00:07:15.728Z,22.30
2023-03-06T00:09:52.460Z,22.80
2023-03-06T00:12:31.928Z,22.90
2023-03-06T00:15:11.552Z,23.40
2023-03-06T00:17:50.521Z,23.40
2023-03-06T00:20:28.257Z,23.40
2023-03-06T00:23:05.232Z,23.80
2023-03-06T00:25:44.591Z,22.30
2023-03-06T00:28:21.453Z,21.90
2023-03-06T00:30:58.188Z,23.30
2023-03-06T00:33:33.936Z,23.80
2023-03-06T00:36:14.264Z,22.90
2023-03-06T00:38:51.455Z,22.30
2023-03-06T00:41:28.068Z,21.90
2023-03-06T00:44:06.441Z,22.30
2023-03-06T00:46:43.433Z,23.30
2023-03-06T00:49:23.073Z,23.10
2023-03-06T00:51:59.409Z,24.60
2023-03-06T00:54:35.069Z,23.80
2023-03-06T00:57:13.135Z,23.70
2023-03-06T00:59:50.405Z,22.70
2023-03-06T01:02:27.282Z,21.80
2023-03-06T01:05:04.023Z,22.60
2023-03-06T01:07:40.444Z,22.10
2023-03-06T01:10:20.735Z,20.70
2023-03-06T01:12:57.636Z,21.80
2023-03-06T01:15:36.205Z,20.70
2023-03-06T01:18:12.950Z,21.40
2023-03-06T01:20:49.292Z,20.20
2023-03-06T01:23:24.806Z,21.70
2023-03-06T01:26:01.148Z,20.10
2023-03-06T01:28:39.408Z,21.20
2023-03-06T01:31:17.893Z,21.40
2023-03-06T01:33:54.214Z,19.30
2023-03-06T01:36:31.387Z,21.60
2023-03-06T01:39:07.894Z,22.20
2023-03-06T01:41:44.557Z,20.90
2023-03-06T01:44:21.171Z,20.50
2023-03-06T01:47:00.748Z,21.30
2023-03-06T01:49:41.403Z,22.20
2023-03-06T01:52:21.016Z,21.20
2023-03-06T01:55:03.541Z,19.90
2023-03-06T01:57:45.469Z,21.80
2023-03-06T02:00:32.526Z,21.50
2023-03-06T02:03:16.880Z,20.20
2023-03-06T02:05:53.753Z,21.60
2023-03-06T02:08:32.399Z,21.20
2023-03-06T02:11:16.776Z,19.90
2023-03-06T02:13:54.668Z,21.30
2023-03-06T02:16:33.906Z,19.30
2023-03-06T02:19:18.980Z,20.10
2023-03-06T02:21:56.609Z,20.20
2023-03-06T02:24:43.035Z,23.40
2023-03-06T02:27:23.938Z,19.60
2023-03-06T02:30:01.928Z,22.40
2023-03-06T02:32:40.244Z,20.40
2023-03-06T02:35:28.163Z,21.00
2023-03-06T02:38:09.503Z,21.30
2023-03-06T02:40:46.676Z,21.00
2023-03-06T02:43:28.051Z,20.40
2023-03-06T02:46:04.999Z,21.10
2023-03-06T02:48:42.392Z,20.80
2023-03-06T02:51:18.646Z,20.20
2023-03-06T02:53:55.826Z,18.50
2023-03-06T02:56:32.355Z,20.20
2023-03-06T02:59:09.783Z,20.40
2023-03-06T03:01:47.962Z,18.70
2023-03-06T03:04:24.262Z,18.10
2023-03-06T03:07:01.563Z,18.70
2023-03-06T03:09:40.962Z,20.10
2023-03-06T03:12:22.683Z,19.10
2023-03-06T03:15:01.102Z,19.00
2023-03-06T03:17:40.509Z,18.00
2023-03-06T03:20:22.539Z,20.60
2023-03-06T03:23:00.836Z,19.80
2023-03-06T03:25:37.730Z,18.00
2023-03-06T03:28:17.456Z,19.80
2023-03-06T03:30:55.003Z,19.00
2023-03-06T03:33:32.038Z,19.60
2023-03-06T03:36:11.419Z,19.50
2023-03-06T03:38:51.477Z,18.60
2023-03-06T03:41:27.868Z,19.90
2023-03-06T03:44:04.517Z,19.40
2023-03-06T03:46:41.994Z,19.80
2023-03-06T03:49:22.569Z,20.80
2023-03-06T03:52:00.178Z,19.10
2023-03-06T03:54:39.711Z,18.60
2023-03-06T03:57:16.162Z,19.00
2023-03-06T03:59:55.516Z,18.30
2023-03-06T04:02:50.707Z,17.80
2023-03-06T04:05:39.355Z,18.30
2023-03-06T04:08:17.854Z,17.80
2023-03-06T04:10:56.394Z,18.00
2023-03-06T04:13:33.243Z,17.80
2023-03-06T04:16:12.160Z,18.60
2023-03-06T04:18:49.538Z,18.20
2023-03-06T04:21:27.923Z,16.50
2023-03-06T04:24:04.192Z,18.60
2023-03-06T04:26:41.789Z,19.20
2023-03-06T04:29:18.605Z,19.30
2023-03-06T04:31:55.595Z,18.60
2023-03-06T04:34:33.061Z,18.80
2023-03-06T04:37:11.547Z,19.50
2023-03-06T04:39:48.380Z,18.50
2023-03-06T04:42:25.411Z,19.60
2023-03-06T04:45:02.490Z,19.10
2023-03-06T04:47:39.097Z,18.80
2023-03-06T04:50:19.831Z,18.20
2023-03-06T04:52:58.410Z,19.40
2023-03-06T04:55:34.801Z,19.50
2023-03-06T04:58:12.474Z,19.60
2023-03-06T05:00:49.624Z,18.80
2023-03-06T05:03:26.584Z,18.40
2023-03-06T05:06:04.090Z,18.60
2023-03-06T05:08:39.851Z,17.10
2023-03-06T05:11:16.953Z,18.20
2023-03-06T05:13:54.085Z,18.60
2023-03-06T05:16:32.202Z,18.50
2023-03-06T05:19:11.344Z,19.80
2023-03-06T05:21:48.531Z,20.40
2023-03-06T05:24:26.069Z,20.60
2023-03-06T05:27:03.094Z,18.80
2023-03-06T05:29:40.700Z,20.30
2023-03-06T05:35:18.570Z,21.90
2023-03-06T05:37:55.583Z,21.80
2023-03-06T05:40:32.822Z,20.60
2023-03-06T05:43:09.487Z,21.80
2023-03-06T05:45:47.472Z,22.00
2023-03-06T05:48:24.138Z,21.00
2023-03-06T05:51:05.448Z,21.30
2023-03-06T05:53:42.037Z,22.30
2023-03-06T05:56:19.200Z,21.40
2023-03-06T05:58:56.948Z,20.40
2023-03-06T06:01:35.034Z,20.90
2023-03-06T06:04:12.903Z,22.20
2023-03-06T06:06:53.810Z,21.80
2023-03-06T06:09:31.537Z,21.20
2023-03-06T06:12:12.598Z,19.30
2023-03-06T06:14:49.915Z,20.70
2023-03-06T06:17:26.583Z,22.30
2023-03-06T06:20:03.928Z,22.20
2023-03-06T06:22:43.288Z,23.80
2023-03-06T06:25:20.480Z,24.10
2023-03-06T06:27:59.927Z,23.30
2023-03-06T06:30:36.703Z,22.00
2023-03-06T06:33:13.862Z,23.30
2023-03-06T06:35:51.580Z,23.20
2023-03-06T06:38:28.777Z,24.10
2023-03-06T06:44:08.527Z,22.70
2023-03-06T06:49:43.940Z,23.10
2023-03-06T06:52:21.330Z,23.50
2023-03-06T06:54:59.430Z,23.60
2023-03-06T06:57:36.182Z,22.80
2023-03-06T07:00:19.753Z,23.20
2023-03-06T07:02:56.770Z,23.70
2023-03-06T07:05:33.848Z,23.40
2023-03-06T07:08:11.269Z,24.50
2023-03-06T07:10:49.200Z,23.60
2023-03-06T07:13:25.576Z,23.00
2023-03-06T07:16:02.334Z,23.90
2023-03-06T07:18:40.708Z,24.10
2023-03-06T07:21:17.378Z,23.70
2023-03-06T07:23:54.550Z,25.30
2023-03-06T07:26:34.501Z,23.50
2023-03-06T07:29:12.410Z,24.10
2023-03-06T07:31:49.161Z,24.10
2023-03-06T07:34:26.485Z,24.60
2023-03-06T07:37:03.642Z,25.60
2023-03-06T07:39:41.120Z,23.80
2023-03-06T07:42:21.204Z,24.20
2023-03-06T07:45:04.766Z,25.30
2023-03-06T07:47:42.314Z,26.50
2023-03-06T07:50:19.703Z,26.40
2023-03-06T07:52:57.780Z,26.20
2023-03-06T07:55:35.195Z,27.10
2023-03-06T07:58:12.182Z,26.80
2023-03-06T08:00:48.904Z,25.90
2023-03-06T08:03:25.221Z,26.50
2023-03-06T08:06:11.121Z,24.80
2023-03-06T08:08:50.507Z,29.20
2023-03-06T08:11:34.101Z,27.10
2023-03-06T08:14:11.079Z,31.00
2023-03-06T08:16:47.450Z,28.80
2023-03-06T08:19:25.211Z,28.20
2023-03-06T08:22:01.863Z,29.40
2023-03-06T08:24:39.633Z,28.00
2023-03-06T08:27:16.264Z,28.10
2023-03-06T08:29:52.860Z,28.00
2023-03-06T08:32:33.261Z,28.30
2023-03-06T08:35:14.268Z,29.00
2023-03-06T08:37:51.270Z,27.50
2023-03-06T08:40:30.805Z,28.80
2023-03-06T08:43:13.981Z,28.10
2023-03-06T08:45:57.583Z,28.40
2023-03-06T08:48:34.907Z,27.60
2023-03-06T08:51:13.625Z,27.60
2023-03-06T08:53:50.907Z,26.30
2023-03-06T08:56:30.133Z,26.80
2023-03-06T08:59:09.676Z,26.20
2023-03-06T09:01:47.124Z,28.80
2023-03-06T09:04:28.058Z,28.30
2023-03-06T09:07:04.853Z,26.30
2023-03-06T09:09:41.915Z,26.90
2023-03-06T09:12:19.527Z,26.70
2023-03-06T09:14:56.403Z,28.50
2023-03-06T09:17:33.265Z,26.80
2023-03-06T09:20:12.206Z,28.60
2023-03-06T09:22:49.125Z,31.20
2023-03-06T09:25:26.121Z,29.90
2023-03-06T09:28:11.361Z,28.60
2023-03-06T09:30:49.262Z,30.20
2023-03-06T09:33:28.854Z,29.40
2023-03-06T09:36:07.945Z,26.30
2023-03-06T09:38:44.799Z,29.00
2023-03-06T09:41:33.631Z,30.20
2023-03-06T09:44:18.766Z,33.50
2023-03-06T09:47:27.452Z,32.40
2023-03-06T09:50:21.904Z,29.20
2023-03-06T09:53:19.704Z,29.10
2023-03-06T09:56:09.220Z,30.20
2023-03-06T09:58:53.728Z,32.10
2023-03-06T10:01:33.553Z,35.30
2023-03-06T10:04:34.420Z,31.40
2023-03-06T10:07:21.596Z,28.30
2023-03-06T10:10:03.735Z,29.80
2023-03-06T10:12:48.701Z,30.00
2023-03-06T10:15:28.758Z,29.60
2023-03-06T10:18:07.606Z,29.60
2023-03-06T10:21:00.936Z,26.80
2023-03-06T10:23:57.625Z,29.10
2023-03-06T10:26:42.528Z,24.10
2023-03-06T10:30:00.092Z,24.70
2023-03-06T10:32:50.631Z,25.20
2023-03-06T10:35:33.721Z,26.00
2023-03-06T10:38:27.479Z,26.10
2023-03-06T10:41:31.171Z,23.30
2023-03-06T10:44:29.955Z,23.90
2023-03-06T10:47:30.838Z,24.60
2023-03-06T10:50:22.657Z,20.30
2023-03-06T10:53:09.705Z,21.60
2023-03-06T10:55:56.465Z,22.50
2023-03-06T10:58:36.286Z,22.80
2023-03-06T11:01:26.034Z,22.80
2023-03-06T11:04:27.812Z,24.60
2023-03-06T11:07:23.283Z,23.10
2023-03-06T11:10:19.449Z,22.10
2023-03-06T11:13:20.790Z,23.20
2023-03-06T11:16:04.776Z,20.50
2023-03-06T11:18:57.232Z,23.20
2023-03-06T11:21:37.772Z,22.30
2023-03-06T11:24:22.297Z,21.20
2023-03-06T11:27:05.902Z,24.60
2023-03-06T11:29:47.624Z,21.40
2023-03-06T11:32:30.706Z,24.80
2023-03-06T11:35:14.248Z,26.40
2023-03-06T11:37:58.878Z,23.60
2023-03-06T11:40:51.723Z,22.60
2023-03-06T11:43:38.651Z,25.60
2023-03-06T11:46:27.796Z,28.70
2023-03-06T11:49:22.723Z,25.80
2023-03-06T11:52:07.289Z,24.60
2023-03-06T11:54:43.926Z,22.70
2023-03-06T11:57:27.275Z,23.40
2023-03-06T12:00:25.569Z,23.60
2023-03-06T12:03:34.005Z,22.80
2023-03-06T12:06:19.763Z,23.40
2023-03-06T12:09:22.960Z,25.80
2023-03-06T12:12:21.675Z,25.20
2023-03-06T12:15:25.889Z,26.70
2023-03-06T12:18:31.872Z,27.20
2023-03-06T12:21:19.325Z,24.50
2023-03-06T12:24:37.216Z,24.40
2023-03-06T12:27:29.760Z,26.40
2023-03-06T12:30:30.445Z,23.20
2023-03-06T12:33:23.071Z,21.60
2023-03-06T12:36:36.101Z,21.40
2023-03-06T12:39:38.672Z,22.00
2023-03-06T12:42:42.810Z,24.60
2023-03-06T12:45:44.338Z,23.40
2023-03-06T12:48:28.471Z,22.30
2023-03-06T12:51:08.099Z,23.70
2023-03-06T12:53:47.157Z,24.30
2023-03-06T12:56:25.225Z,22.70
2023-03-06T12:59:03.004Z,21.20
2023-03-06T13:02:07.664Z,22.60
2023-03-06T13:05:36.918Z,22.60
2023-03-06T13:08:46.734Z,21.20
2023-03-06T13:12:01.059Z,21.60
2023-03-06T13:15:07.067Z,16.80
2023-03-06T13:17:46.557Z,19.20
2023-03-06T13:20:45.990Z,19.70
2023-03-06T13:24:17.558Z,18.00
2023-03-06T13:27:01.120Z,18.90
2023-03-06T13:30:26.067Z,18.20
2023-03-06T13:33:03.302Z,18.50
2023-03-06T13:36:01.924Z,20.60
2023-03-06T13:39:05.144Z,21.90
2023-03-06T13:41:58.857Z,19.70
2023-03-06T13:44:54.034Z,19.10
2023-03-06T13:48:15.504Z,18.50
2023-03-06T13:50:48.557Z,16.70
2023-03-06T13:54:11.651Z,18.80
2023-03-06T13:57:24.905Z,17.30
2023-03-06T14:00:40.152Z,16.90
2023-03-06T14:04:19.931Z,17.60
2023-03-06T14:07:21.425Z,17.70
2023-03-06T14:10:22.665Z,19.20
2023-03-06T14:13:30.007Z,17.50
2023-03-06T14:16:20.641Z,17.20
2023-03-06T14:19:00.012Z,16.60
2023-03-06T14:21:48.209Z,16.60
2023-03-06T14:24:37.866Z,16.00
2023-03-06T14:27:21.948Z,16.10
2023-03-06T14:30:10.374Z,16.60
2023-03-06T14:32:47.601Z,17.70
2023-03-06T14:35:40.447Z,18.70
2023-03-06T14:38:20.265Z,17.20
2023-03-06T14:40:58.544Z,17.50
2023-03-06T14:43:35.430Z,20.00
2023-03-06T14:46:21.140Z,16.80
2023-03-06T14:49:01.849Z,17.40
2023-03-06T14:51:44.446Z,18.70
2023-03-06T14:54:29.014Z,17.70
2023-03-06T14:57:15.744Z,18.80
2023-03-06T14:59:58.220Z,20.50
2023-03-06T15:02:36.454Z,21.30
2023-03-06T15:05:22.979Z,18.20
2023-03-06T15:08:05.549Z,20.20
2023-03-06T15:10:44.461Z,16.90
2023-03-06T15:13:31.163Z,17.40
2023-03-06T15:16:25.071Z,17.70
2023-03-06T15:19:07.187Z,17.20
2023-03-06T15:21:48.506Z,15.90
2023-03-06T15:24:42.526Z,17.10
2023-03-06T15:27:33.004Z,17.90
2023-03-06T15:30:29.782Z,16.70
2023-03-06T15:33:32.034Z,17.00
2023-03-06T15:36:21.887Z,16.70
2023-03-06T15:38:58.455Z,15.60
2023-03-06T15:41:39.960Z,15.90
2023-03-06T15:44:19.948Z,15.60
2023-03-06T15:47:08.520Z,15.10
2023-03-06T15:49:52.620Z,16.20
2023-03-06T15:52:29.461Z,15.80
2023-03-06T15:55:07.169Z,16.70
2023-03-06T15:57:49.382Z,15.80
2023-03-06T16:00:32.919Z,14.10
2023-03-06T16:03:09.968Z,13.90
2023-03-06T16:05:47.507Z,14.60
2023-03-06T16:08:25.619Z,15.80
2023-03-06T16:11:03.166Z,15.00
2023-03-06T16:13:41.613Z,13.70
2023-03-06T16:16:27.287Z,14.90
2023-03-06T16:19:06.065Z,15.90
2023-03-06T16:21:47.083Z,15.70
2023-03-06T16:24:24.148Z,15.60
2023-03-06T16:27:04.920Z,13.70
2023-03-06T16:29:42.576Z,13.00
2023-03-06T16:32:19.715Z,13.80
2023-03-06T16:34:57.100Z,14.40
2023-03-06T16:37:33.877Z,13.70
2023-03-06T16:40:23.426Z,13.30
2023-03-06T16:43:00.490Z,14.60
2023-03-06T16:45:40.988Z,13.50
2023-03-06T16:48:21.208Z,14.70
2023-03-06T16:50:57.850Z,14.80
2023-03-06T16:53:35.066Z,15.90
2023-03-06T16:56:16.688Z,14.00
2023-03-06T16:58:53.822Z,13.80
2023-03-06T17:01:30.772Z,13.70
2023-03-06T17:04:07.850Z,13.40
2023-03-06T17:06:45.170Z,13.40
2023-03-06T17:09:24.018Z,13.90
2023-03-06T17:12:01.372Z,15.50
2023-03-06T17:14:40.846Z,14.90
2023-03-06T17:17:16.518Z,14.80
2023-03-06T17:19:55.237Z,15.30
2023-03-06T17:22:35.268Z,14.90
2023-03-06T17:25:14.380Z,14.90
2023-03-06T17:27:51.002Z,14.90
2023-03-06T17:30:28.589Z,16.60
2023-03-06T17:33:06.920Z,16.40
2023-03-06T17:35:43.787Z,17.20
2023-03-06T17:38:20.458Z,16.60
2023-03-06T17:40:57.392Z,19.90
2023-03-06T17:43:34.933Z,19.00
2023-03-06T17:46:15.457Z,16.10
2023-03-06T17:48:51.789Z,17.50
2023-03-06T17:51:28.693Z,15.30
2023-03-06T17:54:06.240Z,15.40
2023-03-06T17:56:43.600Z,15.30
2023-03-06T17:59:20.835Z,15.90
2023-03-06T18:02:00.326Z,15.90
2023-03-06T18:04:37.734Z,15.90
2023-03-06T18:07:15.716Z,16.70
2023-03-06T18:09:53.062Z,18.90
2023-03-06T18:12:29.749Z,23.80
2023-03-06T18:15:06.370Z,20.50
2023-03-06T18:17:44.018Z,17.70
2023-03-06T18:20:23.098Z,17.50
2023-03-06T18:23:03.921Z,16.00
2023-03-06T18:25:41.729Z,17.50
2023-03-06T18:28:18.392Z,17.80
2023-03-06T18:30:55.214Z,16.80
2023-03-06T18:33:33.035Z,16.90
2023-03-06T18:36:12.431Z,17.30
2023-03-06T18:38:48.748Z,16.20
2023-03-06T18:41:26.897Z,17.30
2023-03-06T18:44:04.829Z,16.70
2023-03-06T18:46:43.199Z,16.60
2023-03-06T18:49:20.223Z,15.70
2023-03-06T18:51:58.614Z,16.10
2023-03-06T18:54:35.767Z,17.60
2023-03-06T18:57:13.811Z,17.10
2023-03-06T18:59:50.791Z,16.80
2023-03-06T19:02:28.678Z,17.00
2023-03-06T19:05:05.373Z,17.00
2023-03-06T19:07:42.766Z,17.50
2023-03-06T19:10:22.812Z,17.50
2023-03-06T19:12:59.471Z,16.20
2023-03-06T19:15:35.822Z,17.30
2023-03-06T19:18:13.802Z,17.80
2023-03-06T19:20:50.404Z,17.30
2023-03-06T19:23:27.487Z,15.30
2023-03-06T19:26:07.787Z,17.90
2023-03-06T19:28:46.844Z,18.90
2023-03-06T19:31:27.035Z,18.20
2023-03-06T19:34:05.913Z,16.30
2023-03-06T19:36:42.398Z,17.10
2023-03-06T19:39:19.719Z,17.20
2023-03-06T19:41:57.057Z,17.90
2023-03-06T19:44:35.087Z,16.50
2023-03-06T19:47:12.820Z,17.40
2023-03-06T19:49:50.580Z,17.10
2023-03-06T19:52:27.354Z,17.70
2023-03-06T19:55:03.966Z,16.90
2023-03-06T19:57:41.100Z,16.90
2023-03-06T20:00:24.424Z,18.10
2023-03-06T20:03:01.479Z,17.30
2023-03-06T20:05:38.762Z,17.10
2023-03-06T20:08:16.210Z,17.60
2023-03-06T20:10:53.389Z,17.60
2023-03-06T20:13:29.874Z,16.10
2023-03-06T20:16:13.265Z,16.50
2023-03-06T20:18:50.661Z,17.20
2023-03-06T20:21:27.912Z,16.50
2023-03-06T20:24:06.114Z,17.80
2023-03-06T20:26:42.877Z,18.50
2023-03-06T20:29:20.536Z,17.60
2023-03-06T20:32:00.606Z,17.70
2023-03-06T20:34:40.327Z,17.60
2023-03-06T20:37:17.575Z,18.40
2023-03-06T20:39:54.533Z,18.20
2023-03-06T20:42:31.250Z,19.00
2023-03-06T20:45:10.810Z,19.10
2023-03-06T20:47:47.635Z,18.10
2023-03-06T20:50:25.713Z,19.30
2023-03-06T20:53:03.536Z,18.30
2023-03-06T20:55:44.575Z,17.60
2023-03-06T20:58:21.436Z,17.60
2023-03-06T21:00:58.718Z,17.40
2023-03-06T21:03:36.819Z,19.10
2023-03-06T21:06:14.492Z,18.30
2023-03-06T21:08:51.210Z,18.60
2023-03-06T21:11:28.689Z,18.00
2023-03-06T21:14:05.365Z,18.50
2023-03-06T21:16:42.346Z,17.90
2023-03-06T21:19:21.172Z,18.00
2023-03-06T21:21:57.863Z,17.40
2023-03-06T21:24:35.103Z,20.10
2023-03-06T21:27:12.756Z,20.60
2023-03-06T21:29:50.202Z,18.40
2023-03-06T21:32:27.099Z,17.80
2023-03-06T21:35:04.274Z,16.50
2023-03-06T21:37:41.046Z,18.00
2023-03-06T21:40:20.617Z,18.10
2023-03-06T21:42:57.456Z,18.30
2023-03-06T21:45:35.007Z,18.90
2023-03-06T21:48:12.525Z,19.40
2023-03-06T21:50:48.479Z,18.10
2023-03-06T21:53:25.015Z,17.00
2023-03-06T21:56:03.972Z,19.20
2023-03-06T21:58:40.603Z,19.70
2023-03-06T22:01:21.524Z,17.50
2023-03-06T22:03:58.174Z,18.90
2023-03-06T22:06:36.202Z,18.60
2023-03-06T22:09:15.099Z,20.20
2023-03-06T22:11:52.355Z,19.70
2023-03-06T22:14:29.815Z,18.70
2023-03-06T22:17:07.481Z,17.10
2023-03-06T22:19:44.786Z,17.60
2023-03-06T22:22:22.448Z,16.80
2023-03-06T22:25:00.426Z,19.80
2023-03-06T22:27:38.973Z,20.40
2023-03-06T22:30:20.205Z,17.60
2023-03-06T22:33:00.273Z,18.60
2023-03-06T22:35:36.130Z,16.20
2023-03-06T22:38:13.259Z,17.80
2023-03-06T22:40:50.698Z,17.90
2023-03-06T22:43:27.459Z,19.20
2023-03-06T22:46:11.770Z,19.60
2023-03-06T22:48:48.473Z,20.90
2023-03-06T22:51:27.426Z,21.00
2023-03-06T22:54:03.501Z,19.00
2023-03-06T22:56:40.810Z,19.80
2023-03-06T22:59:17.344Z,19.30
2023-03-06T23:01:54.389Z,19.00
2023-03-06T23:04:32.448Z,19.60
2023-03-06T23:07:09.344Z,18.50
2023-03-06T23:09:47.025Z,19.70
2023-03-06T23:12:44.450Z,18.40
2023-03-06T23:15:40.106Z,16.40
2023-03-06T23:18:37.195Z,17.40
2023-03-06T23:21:33.328Z,19.20
2023-03-06T23:24:28.822Z,17.40
2023-03-06T23:27:05.766Z,19.80
2023-03-06T23:29:43.476Z,20.00
2023-03-06T23:32:20.524Z,19.60
2023-03-06T23:34:57.376Z,16.70
2023-03-06T23:37:34.385Z,18.90
2023-03-06T23:40:18.197Z,18.00
2023-03-06T23:42:54.357Z,18.40
2023-03-06T23:45:30.713Z,18.90
2023-03-06T23:48:10.034Z,17.70
2023-03-06T23:50:49.549Z,21.10
2023-03-06T23:53:26.628Z,19.80
2023-03-06T23:56:03.478Z,20.60
2023-03-06T23:58:43.317Z,20.50
